Time;durP1;ratioP1;P1;durP2;ratioP2;P2;SDS_P1;SDS_P2;PMS_P1;PMS_P2;Temp;Humidity;BMP_temperature;BMP_pressure;BME280_temperature;BME280_humidity;BME280_pressure;Samples;Min_cycle;Max_cycle;Signal;HPM_P1;HPM_P2
2022/04/14 00:00:20;;;;;;;5.13;2.60;;;14.60;47.00;;;;;;5134732;27;20027;-70
2022/04/14 00:02:46;;;;;;;9.73;2.67;;;14.60;47.00;;;;;;5116114;27;20027;-70
2022/04/14 00:05:12;;;;;;;5.47;3.22;;;14.60;46.90;;;;;;5115113;27;20114;-71
2022/04/14 00:07:39;;;;;;;5.55;3.33;;;14.50;47.00;;;;;;5134299;27;20075;-70
2022/04/14 00:10:05;;;;;;;6.65;3.15;;;14.50;47.20;;;;;;5134337;27;20451;-70
2022/04/14 00:12:32;;;;;;;6.40;2.95;;;14.50;47.20;;;;;;5134582;27;20030;-70
2022/04/14 00:14:58;;;;;;;4.78;3.20;;;14.40;47.00;;;;;;5115777;27;20023;-70
2022/04/14 00:17:24;;;;;;;7.18;3.08;;;14.40;47.10;;;;;;5115935;27;20035;-71
2022/04/14 00:19:50;;;;;;;12.20;3.75;;;14.40;47.20;;;;;;5115286;27;20466;-71
2022/04/14 00:22:16;;;;;;;10.32;3.80;;;14.30;47.30;;;;;;5134109;27;20048;-70
2022/04/14 00:24:42;;;;;;;8.27;4.72;;;14.30;47.20;;;;;;5134414;27;20027;-71
2022/04/14 00:27:08;;;;;;;8.30;3.92;;;14.20;47.30;;;;;;5115416;27;20474;-71
2022/04/14 00:29:34;;;;;;;9.35;3.55;;;14.20;47.30;;;;;;5133460;27;20031;-70
2022/04/14 00:32:00;;;;;;;12.40;4.68;;;14.20;47.50;;;;;;5133438;27;20019;-70
2022/04/14 00:34:26;;;;;;;11.00;4.40;;;14.10;47.60;;;;;;5115563;28;20042;-70
2022/04/14 00:36:52;;;;;;;9.68;4.47;;;14.10;48.00;;;;;;5115476;28;20041;-70
2022/04/14 00:39:18;;;;;;;12.57;4.82;;;14.00;47.80;;;;;;5111690;28;20048;-70
2022/04/14 00:41:44;;;;;;;10.20;4.43;;;14.00;48.20;;;;;;5095285;28;20080;-70
2022/04/14 00:44:10;;;;;;;9.20;4.28;;;14.00;48.30;;;;;;5097366;28;20028;-70
2022/04/14 00:46:36;;;;;;;8.30;4.00;;;14.00;48.10;;;;;;5133452;28;20459;-71
2022/04/14 00:49:02;;;;;;;6.82;3.78;;;13.90;48.00;;;;;;5115717;28;20027;-70
2022/04/14 00:51:28;;;;;;;10.55;4.15;;;13.90;48.20;;;;;;5114794;28;20035;-71
2022/04/14 00:53:54;;;;;;;8.93;4.03;;;13.90;48.30;;;;;;5111983;28;20073;-72
2022/04/14 00:56:20;;;;;;;6.65;3.95;;;13.80;48.20;;;;;;5095162;28;20036;-72
2022/04/14 00:58:47;;;;;;;10.27;3.67;;;13.80;48.40;;;;;;5122089;28;20024;-72
2022/04/14 01:01:12;;;;;;;10.27;4.63;;;13.70;48.60;;;;;;5133963;28;20034;-71
2022/04/14 01:03:39;;;;;;;9.73;4.45;;;13.70;48.50;;;;;;5115379;28;20023;-71
2022/04/14 01:06:05;;;;;;;7.30;4.20;;;13.70;48.60;;;;;;5114913;28;20031;-71
2022/04/14 01:08:35;;;;;;;7.47;4.20;;;13.60;48.70;;;;;;5134028;28;20024;-71
2022/04/14 01:11:02;;;;;;;10.00;4.28;;;13.60;48.70;;;;;;5133768;28;20072;-71
2022/04/14 01:13:27;;;;;;;6.80;3.97;;;13.60;49.10;;;;;;5114871;28;20023;-71
2022/04/14 01:15:58;;;;;;;8.57;3.45;;;13.50;49.20;;;;;;5115154;28;20042;-70
2022/04/14 01:18:25;;;;;;;7.45;3.55;;;13.50;49.10;;;;;;5114808;28;20110;-71
2022/04/14 01:20:51;;;;;;;6.95;3.85;;;13.50;49.00;;;;;;5114621;28;20047;-72
2022/04/14 01:23:43;;;;;;;7.05;4.03;;;13.40;49.20;;;;;;5115157;28;20110;-70
2022/04/14 01:26:11;;;;;;;9.10;4.97;;;13.40;49.40;;;;;;5106327;28;20043;-71
2022/04/14 01:28:37;;;;;;;10.55;4.80;;;13.40;49.80;;;;;;5115116;28;20027;-71
2022/04/14 01:31:03;;;;;;;11.80;4.65;;;13.30;49.70;;;;;;5107593;28;20055;-71
2022/04/14 01:33:29;;;;;;;11.35;5.03;;;13.30;49.50;;;;;;5102162;28;20191;-72
2022/04/14 01:35:55;;;;;;;10.27;4.57;;;13.30;49.90;;;;;;5133513;28;20031;-72
2022/04/14 01:38:21;;;;;;;9.07;4.25;;;13.20;49.80;;;;;;5114335;28;20037;-70
2022/04/14 01:40:47;;;;;;;10.80;3.83;;;13.20;49.90;;;;;;5112044;28;20063;-71
2022/04/14 01:43:13;;;;;;;7.78;4.40;;;13.10;50.00;;;;;;5098391;28;20028;-71
2022/04/14 01:45:38;;;;;;;7.32;3.75;;;13.10;50.00;;;;;;5098421;28;20421;-70
2022/04/14 01:48:04;;;;;;;6.78;3.72;;;13.10;50.10;;;;;;5110691;27;20032;-71
2022/04/14 01:50:30;;;;;;;5.15;3.50;;;13.10;50.10;;;;;;5136186;27;20092;-71
2022/04/14 01:52:56;;;;;;;6.55;3.45;;;13.00;50.20;;;;;;5135646;27;20474;-72
2022/04/14 01:55:22;;;;;;;7.88;3.47;;;13.00;50.30;;;;;;5136432;27;20043;-70
2022/04/14 01:57:48;;;;;;;7.78;4.13;;;13.00;50.50;;;;;;5118240;27;20062;-70
2022/04/14 02:00:15;;;;;;;8.25;4.20;;;12.90;50.40;;;;;;5135813;27;20019;-71
2022/04/14 02:02:41;;;;;;;6.97;3.65;;;12.90;50.50;;;;;;5118535;27;20466;-71
2022/04/14 02:05:07;;;;;;;7.05;3.88;;;12.90;50.50;;;;;;5117223;27;20080;-73
2022/04/14 02:07:34;;;;;;;7.30;4.05;;;12.80;50.60;;;;;;5135110;27;20035;-73
2022/04/14 02:10:00;;;;;;;7.65;4.22;;;12.80;50.60;;;;;;5135668;27;20102;-72
2022/04/14 02:12:26;;;;;;;5.68;3.72;;;12.80;50.70;;;;;;5115700;27;20024;-72
2022/04/14 02:14:53;;;;;;;8.30;3.90;;;12.80;50.70;;;;;;5114959;28;20112;-71
2022/04/14 02:17:20;;;;;;;7.35;3.90;;;12.70;50.70;;;;;;5117102;27;20501;-71
2022/04/14 02:19:47;;;;;;;8.98;4.13;;;12.70;50.80;;;;;;5117986;27;20471;-71
2022/04/14 02:22:13;;;;;;;5.97;3.70;;;12.70;50.80;;;;;;5136494;27;20027;-71
2022/04/14 02:24:39;;;;;;;7.15;4.30;;;12.70;50.90;;;;;;5117862;27;20031;-71
2022/04/14 02:27:04;;;;;;;8.90;4.47;;;12.70;51.20;;;;;;5136776;27;20027;-71
2022/04/14 02:29:30;;;;;;;8.93;4.13;;;12.70;51.40;;;;;;5117718;27;20075;-71
2022/04/14 02:31:57;;;;;;;7.57;3.70;;;12.70;51.50;;;;;;5117576;27;20030;-71
2022/04/14 02:34:27;;;;;;;7.80;3.65;;;12.60;51.30;;;;;;5117660;27;20079;-70
2022/04/14 02:36:54;;;;;;;9.60;4.88;;;12.60;51.50;;;;;;5127897;27;20035;-70
2022/04/14 02:39:20;;;;;;;6.88;4.13;;;12.60;51.90;;;;;;5098556;28;20102;-71
2022/04/14 02:41:46;;;;;;;9.10;3.67;;;12.60;51.90;;;;;;5114252;28;20039;-72
2022/04/14 02:44:12;;;;;;;6.85;4.03;;;12.60;51.90;;;;;;5097228;28;20023;-71
2022/04/14 02:46:37;;;;;;;9.85;4.47;;;12.60;52.00;;;;;;5117376;27;20389;-71
2022/04/14 02:49:03;;;;;;;7.47;4.65;;;12.60;52.00;;;;;;5117480;27;20023;-70
2022/04/14 02:51:29;;;;;;;10.25;5.00;;;12.60;52.00;;;;;;5135864;27;20033;-72
2022/04/14 02:53:55;;;;;;;19.70;5.72;;;12.60;52.20;;;;;;5135034;27;20454;-71
2022/04/14 02:56:21;;;;;;;7.63;4.60;;;12.60;52.40;;;;;;5135835;27;20028;-71
2022/04/14 02:58:46;;;;;;;8.75;4.55;;;12.60;52.50;;;;;;5115934;27;20052;-71
2022/04/14 03:01:12;;;;;;;14.48;5.68;;;12.60;52.30;;;;;;5135174;27;20023;-71
2022/04/14 03:03:38;;;;;;;14.73;5.70;;;12.60;52.50;;;;;;5135785;27;20113;-71
2022/04/14 03:06:05;;;;;;;9.30;4.97;;;12.60;52.70;;;;;;5117212;27;20114;-71
2022/04/14 03:08:31;;;;;;;11.90;5.93;;;12.60;53.00;;;;;;5117032;27;20134;-70
2022/04/14 03:10:57;;;;;;;14.55;6.35;;;12.60;53.20;;;;;;5117086;27;20479;-72
2022/04/14 03:13:23;;;;;;;10.77;6.50;;;12.60;53.50;;;;;;5116513;27;20119;-71
2022/04/14 03:15:50;;;;;;;17.23;6.82;;;12.50;53.80;;;;;;5135108;27;20019;-71
2022/04/14 03:18:17;;;;;;;9.88;6.07;;;12.50;54.00;;;;;;5116904;27;20030;-71
2022/04/14 03:20:43;;;;;;;13.15;6.55;;;12.50;54.60;;;;;;5135398;27;20027;-71
2022/04/14 03:23:09;;;;;;;12.50;5.53;;;12.50;54.70;;;;;;5116821;27;20114;-71
2022/04/14 03:25:34;;;;;;;12.40;5.80;;;12.50;54.70;;;;;;5135272;27;20024;-70
2022/04/14 03:28:00;;;;;;;8.23;4.43;;;12.50;54.90;;;;;;5134317;27;20038;-71
2022/04/14 03:30:26;;;;;;;16.13;6.03;;;12.50;54.70;;;;;;5116768;27;20375;-71
2022/04/14 03:32:52;;;;;;;9.10;4.50;;;12.50;54.60;;;;;;5135185;27;20394;-71
2022/04/14 03:35:18;;;;;;;8.63;4.60;;;12.50;54.60;;;;;;5135015;27;20079;-70
2022/04/14 03:37:44;;;;;;;9.13;4.70;;;12.50;54.50;;;;;;5116500;27;20038;-70
2022/04/14 03:40:11;;;;;;;7.80;4.28;;;12.50;54.10;;;;;;5134270;27;20055;-71
2022/04/14 03:42:37;;;;;;;11.27;4.68;;;12.50;54.10;;;;;;5115974;27;20062;-72
2022/04/14 03:45:05;;;;;;;5.82;3.95;;;12.40;53.80;;;;;;5116423;27;20027;-70
2022/04/14 03:47:31;;;;;;;7.00;4.55;;;12.40;53.70;;;;;;5134269;27;20389;-71
2022/04/14 03:49:58;;;;;;;8.48;4.13;;;12.40;53.80;;;;;;5116218;27;20118;-71
2022/04/14 03:52:24;;;;;;;8.45;3.95;;;12.30;53.60;;;;;;5115968;27;20121;-71
2022/04/14 03:54:50;;;;;;;8.48;4.10;;;12.30;53.80;;;;;;5115412;27;20051;-71
2022/04/14 03:57:16;;;;;;;7.03;4.03;;;12.20;53.70;;;;;;5134446;27;20557;-71
2022/04/14 03:59:41;;;;;;;6.97;3.55;;;12.20;53.60;;;;;;5133840;27;20045;-71
2022/04/14 04:02:07;;;;;;;7.90;3.85;;;12.20;53.60;;;;;;5116141;27;20123;-70
2022/04/14 04:04:33;;;;;;;6.28;4.25;;;12.10;53.50;;;;;;5116062;27;20023;-71
2022/04/14 04:06:59;;;;;;;12.77;4.90;;;12.10;53.70;;;;;;5116010;27;20037;-70
2022/04/14 04:09:26;;;;;;;9.15;4.93;;;12.10;53.90;;;;;;5133491;27;20374;-70
2022/04/14 04:11:53;;;;;;;9.85;4.82;;;12.00;54.30;;;;;;5134571;27;20030;-70
2022/04/14 04:14:19;;;;;;;9.65;5.70;;;12.00;54.20;;;;;;5116407;27;20084;-71
2022/04/14 04:16:46;;;;;;;9.77;4.95;;;12.00;54.20;;;;;;5134318;27;20023;-70
2022/04/14 04:19:12;;;;;;;9.65;4.93;;;12.00;54.00;;;;;;5134206;27;20061;-71
2022/04/14 04:21:37;;;;;;;9.30;5.50;;;12.00;54.00;;;;;;5115767;28;20034;-71
2022/04/14 04:24:04;;;;;;;17.70;5.40;;;11.90;54.00;;;;;;5134056;27;20032;-71
2022/04/14 04:26:29;;;;;;;8.68;5.32;;;12.00;54.20;;;;;;5115645;27;20035;-70
2022/04/14 04:28:55;;;;;;;8.73;5.28;;;11.90;54.80;;;;;;5115740;27;20033;-70
2022/04/14 04:31:21;;;;;;;9.82;5.53;;;11.90;54.20;;;;;;5133884;27;20027;-70
2022/04/14 04:33:51;;;;;;;10.23;4.72;;;11.90;54.40;;;;;;5133902;27;20505;-70
2022/04/14 04:36:20;;;;;;;16.40;6.38;;;11.90;54.30;;;;;;5133514;27;20034;-71
2022/04/14 04:38:46;;;;;;;10.27;5.82;;;11.90;54.60;;;;;;5134309;27;20038;-71
2022/04/14 04:41:12;;;;;;;11.65;5.38;;;11.90;54.50;;;;;;5115131;28;20043;-71
2022/04/14 04:43:38;;;;;;;10.35;6.32;;;11.90;54.60;;;;;;5115708;28;20069;-71
2022/04/14 04:46:03;;;;;;;9.25;5.13;;;11.90;54.70;;;;;;5133948;28;20094;-70
2022/04/14 04:48:30;;;;;;;10.85;5.82;;;11.90;54.90;;;;;;5133751;28;20102;-72
2022/04/14 04:50:56;;;;;;;8.25;4.55;;;11.90;55.10;;;;;;5114465;28;20065;-71
2022/04/14 04:53:22;;;;;;;7.95;5.00;;;11.90;54.90;;;;;;5132790;28;20486;-71
2022/04/14 04:55:48;;;;;;;11.05;4.65;;;11.90;55.00;;;;;;5115466;28;20076;-70
2022/04/14 04:58:14;;;;;;;9.40;4.80;;;11.90;55.00;;;;;;5115721;28;20425;-71
2022/04/14 05:00:41;;;;;;;8.05;4.88;;;12.00;55.00;;;;;;5133766;28;20489;-71
2022/04/14 05:03:10;;;;;;;10.30;5.07;;;12.00;55.20;;;;;;5115648;28;20383;-71
2022/04/14 05:05:40;;;;;;;15.77;4.93;;;12.00;55.30;;;;;;5133186;28;20067;-72
2022/04/14 05:08:07;;;;;;;11.35;4.78;;;12.00;55.30;;;;;;5115403;28;20027;-72
2022/04/14 05:10:34;;;;;;;8.27;4.65;;;12.10;55.20;;;;;;5133947;28;20019;-70
2022/04/14 05:13:00;;;;;;;13.05;5.13;;;12.10;55.20;;;;;;5115384;28;20450;-71
2022/04/14 05:15:26;;;;;;;11.00;5.78;;;12.20;55.30;;;;;;5134005;27;20023;-71
2022/04/14 05:17:52;;;;;;;13.57;5.30;;;12.20;55.50;;;;;;5137052;27;20487;-71
2022/04/14 05:20:18;;;;;;;9.38;4.65;;;12.20;55.60;;;;;;5119140;27;20035;-71
2022/04/14 05:22:44;;;;;;;8.68;5.22;;;12.30;55.40;;;;;;5137748;27;20019;-71
2022/04/14 05:25:09;;;;;;;11.63;4.57;;;12.30;55.30;;;;;;5118960;27;20042;-71
2022/04/14 05:27:35;;;;;;;7.93;4.68;;;12.40;55.30;;;;;;5118867;27;20038;-71
2022/04/14 05:30:01;;;;;;;11.05;4.85;;;12.40;55.30;;;;;;5119028;27;20030;-70
2022/04/14 05:32:27;;;;;;;7.93;5.70;;;12.50;55.40;;;;;;5131441;27;20016;-70
2022/04/14 05:34:56;;;;;;;9.68;5.15;;;12.50;55.50;;;;;;5115711;28;20052;-70
2022/04/14 05:37:22;;;;;;;9.45;4.40;;;12.50;55.50;;;;;;5115598;28;20536;-71
2022/04/14 05:39:48;;;;;;;9.70;4.78;;;12.60;55.30;;;;;;5129784;27;20054;-71
2022/04/14 05:42:13;;;;;;;10.32;4.72;;;12.70;55.40;;;;;;5118785;27;20027;-70
2022/04/14 05:44:40;;;;;;;8.23;5.32;;;12.70;55.30;;;;;;5137390;27;20371;-71
2022/04/14 05:47:06;;;;;;;9.75;5.28;;;12.80;55.50;;;;;;5107465;28;20437;-71
2022/04/14 05:49:31;;;;;;;9.52;5.05;;;12.90;55.40;;;;;;5116689;28;20028;-72
2022/04/14 05:51:57;;;;;;;8.45;5.05;;;12.90;55.40;;;;;;5098107;28;20020;-71
2022/04/14 05:54:23;;;;;;;10.93;4.60;;;13.00;55.30;;;;;;5098141;28;20024;-71
2022/04/14 05:56:48;;;;;;;9.32;4.13;;;13.10;55.30;;;;;;5098012;28;20031;-70
2022/04/14 05:59:17;;;;;;;8.32;4.70;;;13.10;55.70;;;;;;5097818;28;20032;-70
2022/04/14 06:01:44;;;;;;;7.30;4.60;;;13.20;55.00;;;;;;5132689;27;20026;-71
2022/04/14 06:04:10;;;;;;;8.40;4.93;;;13.30;55.00;;;;;;5118428;27;20027;-70
2022/04/14 06:06:36;;;;;;;12.32;4.88;;;13.40;55.00;;;;;;5127364;27;20486;-71
2022/04/14 06:09:02;;;;;;;15.30;5.95;;;13.40;54.80;;;;;;5116741;28;20023;-70
2022/04/14 06:11:28;;;;;;;16.52;6.68;;;13.50;54.70;;;;;;5116204;28;20027;-70
2022/04/14 06:13:54;;;;;;;11.27;6.15;;;13.60;54.70;;;;;;5097786;28;21691;-70
2022/04/14 06:16:20;;;;;;;13.32;6.25;;;13.70;54.60;;;;;;5116313;28;20073;-71
2022/04/14 06:18:46;;;;;;;15.27;6.15;;;13.70;54.50;;;;;;5116004;28;20451;-70
2022/04/14 06:21:12;;;;;;;14.73;6.05;;;13.80;54.30;;;;;;5115965;28;20368;-70
2022/04/14 06:23:38;;;;;;;13.18;6.15;;;13.90;54.20;;;;;;5097806;28;20063;-71
2022/04/14 06:26:04;;;;;;;10.13;6.38;;;14.00;54.10;;;;;;5097526;28;20034;-71
2022/04/14 06:28:31;;;;;;;9.48;5.45;;;14.10;53.90;;;;;;5103712;27;20035;-71
2022/04/14 06:30:57;;;;;;;12.80;6.28;;;14.20;53.80;;;;;;5118248;27;20114;-71
2022/04/14 06:33:23;;;;;;;11.68;6.13;;;14.30;53.50;;;;;;5118154;27;20027;-70
2022/04/14 06:35:49;;;;;;;16.77;7.10;;;14.40;53.40;;;;;;5136137;27;20519;-71
2022/04/14 06:38:16;;;;;;;14.43;7.15;;;14.50;53.20;;;;;;5113759;28;20069;-70
2022/04/14 06:40:42;;;;;;;12.65;7.28;;;14.60;52.90;;;;;;5115896;28;20047;-71
2022/04/14 06:43:08;;;;;;;17.58;8.52;;;14.70;52.70;;;;;;5097385;28;20417;-70
2022/04/14 06:45:34;;;;;;;17.95;8.63;;;14.80;52.40;;;;;;5115266;28;20024;-71
2022/04/14 06:48:00;;;;;;;16.73;8.25;;;14.90;52.20;;;;;;5115422;28;20081;-71
2022/04/14 06:50:27;;;;;;;17.92;8.43;;;15.00;52.10;;;;;;5115660;28;20015;-71
2022/04/14 06:52:53;;;;;;;13.52;7.35;;;15.10;51.80;;;;;;5097018;28;20063;-70
2022/04/14 06:55:21;;;;;;;13.98;7.78;;;15.20;50.80;;;;;;5115588;28;20028;-70
2022/04/14 06:57:48;;;;;;;17.50;8.70;;;15.30;50.50;;;;;;5115348;28;20024;-71
2022/04/14 07:00:14;;;;;;;22.75;8.30;;;15.40;49.60;;;;;;5096925;28;20169;-71
2022/04/14 07:02:47;;;;;;;19.75;9.02;;;15.40;48.70;;;;;;5097022;28;20030;-71
2022/04/14 07:05:14;;;;;;;25.83;9.52;;;15.50;48.90;;;;;;5114930;28;20034;-71
2022/04/14 07:07:40;;;;;;;12.50;7.65;;;15.60;48.80;;;;;;5114916;28;20035;-71
2022/04/14 07:10:06;;;;;;;16.42;7.47;;;15.70;48.40;;;;;;5096750;28;20027;-71
2022/04/14 07:12:32;;;;;;;14.82;6.85;;;15.80;48.20;;;;;;5096616;28;20031;-71
2022/04/14 07:15:00;;;;;;;15.82;7.15;;;15.90;48.10;;;;;;5096779;28;20165;-72
2022/04/14 07:17:26;;;;;;;13.55;7.18;;;16.00;47.90;;;;;;5096653;28;20387;-71
2022/04/14 07:19:52;;;;;;;15.38;8.18;;;16.10;47.70;;;;;;5096719;28;20039;-71
2022/04/14 07:22:18;;;;;;;23.73;8.15;;;16.10;47.30;;;;;;5091972;28;20356;-71
2022/04/14 07:24:49;;;;;;;15.35;6.43;;;16.20;47.30;;;;;;5094921;28;20047;-71
2022/04/14 07:27:20;;;;;;;19.95;7.95;;;16.30;47.10;;;;;;5076231;28;20030;-71
2022/04/14 07:29:46;;;;;;;16.00;7.07;;;16.40;46.80;;;;;;5076325;28;20118;-71
2022/04/14 07:32:13;;;;;;;17.40;7.63;;;16.50;46.90;;;;;;5075869;28;20032;-71
2022/04/14 07:34:39;;;;;;;21.13;7.45;;;16.50;46.30;;;;;;5084776;28;20032;-71
2022/04/14 07:37:05;;;;;;;9.95;6.10;;;16.60;46.30;;;;;;5114512;28;20081;-71
2022/04/14 07:39:32;;;;;;;9.68;6.13;;;16.70;45.90;;;;;;5098793;27;20047;-71
2022/04/14 07:41:57;;;;;;;9.55;5.53;;;16.70;45.80;;;;;;5116613;27;20020;-71
2022/04/14 07:44:23;;;;;;;10.40;5.82;;;16.80;45.90;;;;;;5116659;27;20043;-71
2022/04/14 07:46:50;;;;;;;13.25;6.38;;;16.90;45.50;;;;;;5116741;27;20027;-71
2022/04/14 07:49:15;;;;;;;10.88;6.40;;;17.00;45.40;;;;;;5116194;27;20079;-71
2022/04/14 07:51:41;;;;;;;16.38;7.32;;;17.00;45.50;;;;;;5135000;27;20363;-71
2022/04/14 07:54:07;;;;;;;13.98;7.32;;;17.10;45.40;;;;;;5130355;27;20027;-71
2022/04/14 07:56:33;;;;;;;10.88;5.53;;;17.20;45.10;;;;;;5115721;27;20027;-71
2022/04/14 07:59:00;;;;;;;15.35;6.60;;;17.20;44.80;;;;;;5115748;27;20034;-71
2022/04/14 08:01:26;;;;;;;11.82;7.00;;;17.30;44.90;;;;;;5116212;27;20030;-71
2022/04/14 08:03:52;;;;;;;10.82;6.80;;;17.40;44.50;;;;;;5115344;27;20023;-71
2022/04/14 08:06:18;;;;;;;14.18;6.63;;;17.40;44.40;;;;;;5115318;27;20484;-71
2022/04/14 08:08:44;;;;;;;9.57;6.38;;;17.40;44.30;;;;;;5114132;28;20028;-71
2022/04/14 08:11:10;;;;;;;17.30;7.57;;;17.50;44.40;;;;;;5113879;28;20382;-71
2022/04/14 08:13:38;;;;;;;13.48;7.38;;;17.60;44.00;;;;;;5095700;28;20094;-71
2022/04/14 08:16:09;;;;;;;11.68;6.40;;;17.60;44.00;;;;;;5105182;27;20042;-71
2022/04/14 08:18:39;;;;;;;17.58;6.53;;;17.70;43.80;;;;;;5116259;27;20073;-71
2022/04/14 08:21:05;;;;;;;18.27;7.10;;;17.70;43.50;;;;;;5134581;27;20023;-72
2022/04/14 08:23:31;;;;;;;12.18;7.05;;;17.80;43.50;;;;;;5095663;28;20020;-71
2022/04/14 08:25:57;;;;;;;11.52;6.35;;;17.80;43.30;;;;;;5105737;27;20599;-72
2022/04/14 08:28:23;;;;;;;11.88;6.78;;;17.90;43.60;;;;;;5115227;27;20139;-71
2022/04/14 08:30:49;;;;;;;15.00;7.03;;;17.90;43.30;;;;;;5133676;27;20058;-71
2022/04/14 08:33:20;;;;;;;14.88;7.20;;;18.00;43.30;;;;;;5115877;27;20072;-71
2022/04/14 08:35:46;;;;;;;24.50;6.55;;;18.10;43.50;;;;;;5115414;27;20381;-71
2022/04/14 08:38:12;;;;;;;10.10;5.72;;;18.10;43.20;;;;;;5113775;28;20050;-70
2022/04/14 08:40:40;;;;;;;10.00;6.25;;;18.20;43.20;;;;;;5115081;28;20050;-71
2022/04/14 08:43:10;;;;;;;13.30;6.15;;;18.30;43.20;;;;;;5114886;28;20118;-71
2022/04/14 08:45:50;;;;;;;15.60;6.55;;;18.40;43.10;;;;;;5111188;28;20113;-71
2022/04/14 08:48:17;;;;;;;13.77;7.32;;;18.50;43.20;;;;;;5113230;28;20033;-71
2022/04/14 08:50:44;;;;;;;18.13;7.07;;;18.50;42.80;;;;;;5132912;27;20027;-71
2022/04/14 08:53:11;;;;;;;14.30;7.15;;;18.60;42.80;;;;;;5116625;28;20072;-70
2022/04/14 08:55:42;;;;;;;11.55;6.40;;;18.60;42.80;;;;;;5138088;27;20023;-70
2022/04/14 08:58:16;;;;;;;13.85;7.05;;;18.70;42.50;;;;;;5116169;28;20039;-71
2022/04/14 09:00:42;;;;;;;;;;;18.80;42.20;;;;;;5115685;28;20039;-71
2022/04/14 09:03:08;;;;;;;15.13;7.35;;;18.90;43.20;;;;;;5134321;27;19903;-71
2022/04/14 09:05:34;;;;;;;13.93;8.00;;;18.90;41.60;;;;;;5137872;27;20019;-71
2022/04/14 09:08:00;;;;;;;12.70;7.82;;;19.00;41.70;;;;;;5119794;27;20110;-71
2022/04/14 09:10:27;;;;;;;19.10;6.30;;;19.00;41.60;;;;;;5119058;27;20049;-71
2022/04/14 09:12:53;;;;;;;12.88;7.00;;;19.00;41.80;;;;;;5138153;27;20031;-70
2022/04/14 09:15:20;;;;;;;14.60;7.80;;;19.10;41.90;;;;;;5119642;27;20030;-71
2022/04/14 09:17:46;;;;;;;17.30;8.77;;;19.10;41.50;;;;;;5119134;27;20038;-72
2022/04/14 09:20:36;;;;;;;20.48;7.35;;;19.20;41.40;;;;;;5137229;27;20023;-71
2022/04/14 09:23:23;;;;;;;23.27;8.20;;;19.20;41.80;;;;;;5137655;27;20023;-72
2022/04/14 09:26:13;;;;;;;14.20;7.32;;;19.30;42.10;;;;;;5119343;27;20045;-71
2022/04/14 09:28:59;;;;;;;14.52;7.35;;;19.40;41.80;;;;;;5107271;27;20035;-71
2022/04/14 09:31:25;;;;;;;13.40;7.10;;;19.50;42.00;;;;;;5138040;27;20026;-71
2022/04/14 09:33:51;;;;;;;12.20;6.90;;;19.60;41.90;;;;;;5137314;27;20027;-72
2022/04/14 09:36:19;;;;;;;14.73;7.30;;;19.60;42.00;;;;;;5137139;27;20042;-71
2022/04/14 09:39:07;;;;;;;13.45;6.72;;;19.70;41.90;;;;;;5136844;27;20023;-71
2022/04/14 09:41:41;;;;;;;13.57;6.53;;;19.80;42.10;;;;;;5102321;28;20128;-71
2022/04/14 09:44:11;;;;;;;10.38;7.03;;;19.90;42.00;;;;;;5098651;28;20028;-70
2022/04/14 09:46:45;;;;;;;12.57;7.45;;;20.00;42.00;;;;;;5098372;28;20107;-72
2022/04/14 09:49:13;;;;;;;15.97;8.00;;;20.20;42.00;;;;;;5098532;28;20099;-72
2022/04/14 09:51:41;;;;;;;14.27;8.90;;;20.30;41.80;;;;;;5120450;27;20023;-71
2022/04/14 09:54:17;;;;;;;23.50;10.50;;;20.40;41.60;;;;;;5098425;28;20061;-71
2022/04/14 09:56:54;;;;;;;22.65;9.50;;;20.50;41.30;;;;;;5116696;28;20379;-71
2022/04/14 09:59:30;;;;;;;25.42;9.52;;;20.60;41.40;;;;;;5111378;28;20035;-71
2022/04/14 10:02:18;;;;;;;18.30;10.05;;;20.60;41.10;;;;;;5082320;28;20028;-71
2022/04/14 10:04:46;;;;;;;20.13;10.52;;;20.70;41.00;;;;;;5087517;28;20027;-71
2022/04/14 10:07:17;;;;;;;36.28;12.93;;;20.80;40.90;;;;;;5101410;28;20063;-71
2022/04/14 10:09:45;;;;;;;23.48;10.25;;;20.90;40.80;;;;;;5115948;28;20024;-71
2022/04/14 10:12:20;;;;;;;16.20;8.60;;;21.00;40.40;;;;;;5110127;28;20023;-73
2022/04/14 10:15:04;;;;;;;16.27;8.63;;;21.10;40.50;;;;;;5116138;28;20054;-71
2022/04/14 10:17:38;;;;;;;13.50;8.65;;;21.20;40.60;;;;;;5102851;28;20032;-71
2022/04/14 10:20:09;;;;;;;18.90;8.60;;;21.30;40.30;;;;;;5109477;28;20015;-72
2022/04/14 10:22:37;;;;;;;23.08;10.45;;;21.40;40.20;;;;;;5089820;28;20051;-71
2022/04/14 10:25:04;;;;;;;14.55;8.73;;;21.50;40.10;;;;;;5117055;27;20032;-72
2022/04/14 10:27:33;;;;;;;12.43;8.65;;;21.50;39.90;;;;;;5097677;28;20031;-71
2022/04/14 10:29:59;;;;;;;17.10;9.02;;;21.60;40.10;;;;;;5096307;28;20084;-71
2022/04/14 10:32:26;;;;;;;18.20;9.45;;;21.70;39.70;;;;;;5094250;28;20057;-72
2022/04/14 10:34:53;;;;;;;14.88;8.43;;;21.70;39.50;;;;;;5086662;28;20058;-71
2022/04/14 10:37:26;;;;;;;16.77;9.98;;;21.80;39.40;;;;;;5098688;28;20109;-71
2022/04/14 10:39:52;;;;;;;18.80;10.07;;;21.80;39.40;;;;;;5096222;28;20074;-71
2022/04/14 10:42:24;;;;;;;15.77;10.10;;;21.90;39.10;;;;;;5113327;27;20038;-72
2022/04/14 10:44:51;;;;;;;17.75;10.60;;;21.90;39.10;;;;;;5117696;27;20076;-71
2022/04/14 10:47:58;;;;;;;23.05;10.52;;;21.90;38.70;;;;;;5113685;27;20028;-72
2022/04/14 10:50:26;;;;;;;17.95;9.90;;;22.00;39.80;;;;;;5105118;27;20028;-71
2022/04/14 10:53:20;;;;;;;22.52;10.75;;;22.00;38.90;;;;;;5093842;28;20028;-71
2022/04/14 10:55:47;;;;;;;;;;;22.00;39.00;;;;;;5077098;28;20027;-72
2022/04/14 10:58:40;;;;;;;16.63;10.10;;;22.10;39.70;;;;;;5079868;28;19919;-72
2022/04/14 11:01:11;;;;;;;13.75;10.02;;;22.20;39.00;;;;;;5115455;28;20024;-72
2022/04/14 11:03:55;;;;;;;25.98;10.38;;;22.20;38.60;;;;;;5097019;28;20024;-73
2022/04/14 11:06:39;;;;;;;17.08;10.65;;;22.20;38.50;;;;;;5110326;28;20077;-72
2022/04/14 11:09:06;;;;;;;19.08;11.20;;;22.30;38.50;;;;;;5112635;27;20395;-72
2022/04/14 11:11:59;;;;;;;24.08;12.73;;;22.30;38.20;;;;;;5104698;28;20032;-72
2022/04/14 11:14:25;;;;;;;22.77;11.80;;;22.40;38.20;;;;;;5117777;27;20019;-72
2022/04/14 11:16:51;;;;;;;19.73;10.23;;;22.40;38.10;;;;;;5103155;28;20092;-73
2022/04/14 11:19:24;;;;;;;27.27;11.88;;;22.50;38.20;;;;;;5112788;28;20047;-71
2022/04/14 11:24:43;;;;;;;21.35;11.52;;;22.60;37.80;;;;;;5109689;28;20034;-72
2022/04/14 11:27:26;;;;;;;14.55;9.80;;;22.60;38.00;;;;;;5112034;27;20043;-72
2022/04/14 11:29:57;;;;;;;19.48;11.00;;;22.70;38.10;;;;;;5108896;28;20167;-71
2022/04/14 11:32:40;;;;;;;14.80;10.50;;;22.80;38.20;;;;;;5083381;28;20036;-70
2022/04/14 11:35:18;;;;;;;24.77;13.05;;;22.90;37.90;;;;;;5112019;28;20077;-72
2022/04/14 11:37:49;;;;;;;20.88;11.85;;;23.00;37.60;;;;;;5095502;28;20065;-71
2022/04/14 11:40:22;;;;;;;25.40;11.85;;;23.10;37.50;;;;;;5094333;28;20514;-71
2022/04/14 11:42:53;;;;;;;20.37;12.50;;;23.20;37.40;;;;;;5112941;28;20389;-71
2022/04/14 11:45:23;;;;;;;21.98;10.95;;;23.20;37.20;;;;;;5085139;28;20082;-71
2022/04/14 11:47:50;;;;;;;16.23;10.75;;;23.30;37.20;;;;;;5106449;28;20030;-71
2022/04/14 11:50:23;;;;;;;19.15;10.80;;;23.30;37.50;;;;;;5095815;28;20534;-72
2022/04/14 11:52:54;;;;;;;18.43;11.53;;;23.40;37.30;;;;;;5114356;28;20455;-71
2022/04/14 11:55:37;;;;;;;17.10;11.25;;;23.40;37.10;;;;;;5096094;28;20421;-71
2022/04/14 11:58:11;;;;;;;25.50;12.05;;;23.50;37.20;;;;;;5092391;28;20089;-71
2022/04/14 12:00:50;;;;;;;16.58;9.98;;;23.50;37.00;;;;;;5090867;28;20034;-70
2022/04/14 12:03:30;;;;;;;16.08;10.45;;;23.60;37.20;;;;;;5094390;28;20434;-72
2022/04/14 12:06:02;;;;;;;16.08;10.93;;;23.70;37.00;;;;;;5087953;28;20020;-71
2022/04/14 12:08:28;;;;;;;17.17;11.05;;;23.70;36.90;;;;;;5095705;28;20036;-71
2022/04/14 12:10:54;;;;;;;16.95;11.10;;;23.80;37.00;;;;;;5095648;28;20479;-70
2022/04/14 12:13:21;;;;;;;17.25;11.57;;;23.80;37.00;;;;;;5095600;28;20027;-70
2022/04/14 12:16:04;;;;;;;18.88;10.57;;;23.90;36.70;;;;;;5113469;28;20077;-71
2022/04/14 12:18:30;;;;;;;18.95;10.25;;;23.90;36.80;;;;;;5100488;28;20043;-71
2022/04/14 12:20:56;;;;;;;27.67;12.93;;;24.00;36.70;;;;;;5088721;28;20379;-70
2022/04/14 12:23:22;;;;;;;28.60;10.88;;;24.10;36.50;;;;;;5095419;28;20038;-70
2022/04/14 12:25:48;;;;;;;12.63;9.75;;;24.10;36.40;;;;;;5095325;28;20028;-70
2022/04/14 12:28:15;;;;;;;18.77;10.70;;;24.20;36.60;;;;;;5094271;28;20028;-71
2022/04/14 12:30:41;;;;;;;28.02;10.48;;;24.20;36.30;;;;;;5095125;28;20023;-72
2022/04/14 12:33:08;;;;;;;25.65;11.32;;;24.30;36.50;;;;;;5094476;28;20030;-72
2022/04/14 12:35:38;;;;;;;12.80;10.10;;;24.40;36.10;;;;;;5112770;28;20509;-71
2022/04/14 12:38:16;;;;;;;13.48;9.18;;;24.40;36.10;;;;;;5095056;28;20043;-70
2022/04/14 12:41:02;;;;;;;27.95;12.23;;;24.50;36.20;;;;;;5106264;28;20127;-72
2022/04/14 12:43:34;;;;;;;23.33;11.10;;;24.60;36.20;;;;;;5133954;28;20068;-71
2022/04/14 12:46:01;;;;;;;15.73;10.50;;;24.60;35.90;;;;;;5134384;28;20027;-71